Time;durP1;ratioP1;P1;durP2;ratioP2;P2;SDS_P1;SDS_P2;PMS_P1;PMS_P2;Temp;Humidity;BMP_temperature;BMP_pressure;BME280_temperature;BME280_humidity;BME280_pressure;Samples;Min_cycle;Max_cycle;Signal;HPM_P1;HPM_P2
2023/07/22 00:04:05;;;;;;;;;;;13.20;99.90;;;;;;12506006;28;19921;-42
2023/07/22 00:10:07;;;;;;;;;;;13.10;99.90;;;;;;12515393;28;20400;-41
2023/07/22 00:16:09;;;;;;;;;;;13.10;99.90;;;;;;12491011;28;20324;-41
2023/07/22 00:22:11;;;;;;;;;;;13.00;99.90;;;;;;12522975;28;20397;-41
2023/07/22 00:28:13;;;;;;;;;;;13.00;99.90;;;;;;12511100;28;19921;-42
2023/07/22 00:34:16;;;;;;;;;;;12.90;99.90;;;;;;12522083;28;20374;-42
2023/07/22 00:40:18;;;;;;;;;;;12.90;99.90;;;;;;12512168;28;19921;-41
2023/07/22 00:46:20;;;;;;;;;;;13.00;99.90;;;;;;12520244;28;19972;-41
2023/07/22 00:52:21;;;;;;;;;;;12.90;99.90;;;;;;12530635;28;20300;-41
2023/07/22 00:58:23;;;;;;;;;;;13.10;99.90;;;;;;12499630;28;20349;-41
2023/07/22 01:04:25;;;;;;;;;;;13.40;99.90;;;;;;12507824;28;19921;-41
2023/07/22 01:10:28;;;;;;;;;;;13.10;99.90;;;;;;12516234;28;20011;-42
2023/07/22 01:16:30;;;;;;;;;;;13.20;99.90;;;;;;12501102;28;19921;-42
2023/07/22 01:22:33;;;;;;;;;;;13.20;99.90;;;;;;12523122;28;19929;-42
2023/07/22 01:28:35;;;;;;;;;;;13.20;99.90;;;;;;12519129;28;19928;-41
2023/07/22 01:34:37;;;;;;;;;;;13.20;99.90;;;;;;12507531;28;19929;-42
2023/07/22 01:40:38;;;;;;;;;;;13.20;99.90;;;;;;12508096;28;20038;-41
2023/07/22 01:46:41;;;;;;;;;;;13.30;99.90;;;;;;12525655;28;20042;-42
2023/07/22 01:52:46;;;;;;;;;;;13.10;99.90;;;;;;12511041;28;20183;-42
2023/07/22 01:58:48;;;;;;;;;;;13.00;99.90;;;;;;12528476;28;19928;-41
2023/07/22 02:04:49;;;;;;;;;;;12.90;99.90;;;;;;12517062;28;20430;-42
2023/07/22 02:10:51;;;;;;;;;;;12.90;99.90;;;;;;12521539;28;20062;-42
2023/07/22 02:16:53;;;;;;;;;;;12.70;99.90;;;;;;12513224;28;19924;-41
2023/07/22 02:22:55;;;;;;;;;;;12.80;99.90;;;;;;12493364;28;19970;-42
2023/07/22 02:28:56;;;;;;;;;;;12.80;99.90;;;;;;12529821;28;19920;-41
2023/07/22 02:34:58;;;;;;;;;;;12.70;99.90;;;;;;12510495;28;19944;-41
2023/07/22 02:41:06;;;;;;;;;;;12.70;99.90;;;;;;12521036;28;19932;-41
2023/07/22 02:47:08;;;;;;;;;;;12.60;99.90;;;;;;12533761;28;20011;-41
2023/07/22 02:53:10;;;;;;;;;;;12.60;99.90;;;;;;12518189;28;19964;-41
2023/07/22 02:59:12;;;;;;;;;;;12.70;99.90;;;;;;12497527;28;20054;-41
2023/07/22 03:05:14;;;;;;;;;;;12.60;99.90;;;;;;12513507;28;20420;-41
2023/07/22 03:11:15;;;;;;;;;;;12.60;99.90;;;;;;12499566;28;19921;-43
2023/07/22 03:17:18;;;;;;;;;;;12.60;99.90;;;;;;12518779;28;19921;-41
2023/07/22 03:23:20;;;;;;;;;;;12.50;99.90;;;;;;12504089;28;19959;-42
2023/07/22 03:29:24;;;;;;;;;;;12.70;99.90;;;;;;12508942;28;20274;-42
2023/07/22 03:35:26;;;;;;;;;;;12.70;99.90;;;;;;12504530;28;19925;-41
2023/07/22 03:41:28;;;;;;;;;;;12.70;99.90;;;;;;12510844;28;19947;-42
2023/07/22 03:47:29;;;;;;;;;;;12.60;99.90;;;;;;12501823;28;19928;-42
2023/07/22 03:53:31;;;;;;;;;;;12.60;99.90;;;;;;12500186;28;19920;-41
2023/07/22 03:59:33;;;;;;;;;;;12.70;99.90;;;;;;12503160;28;19925;-41
2023/07/22 04:05:35;;;;;;;;;;;12.70;99.90;;;;;;12505036;28;20031;-41
2023/07/22 04:11:37;;;;;;;;;;;13.00;99.90;;;;;;12487764;28;20389;-41
2023/07/22 04:17:39;;;;;;;;;;;13.30;99.90;;;;;;12516272;28;20376;-41
2023/07/22 04:23:41;;;;;;;;;;;13.90;99.90;;;;;;12521375;28;19943;-42
2023/07/22 04:29:42;;;;;;;;;;;13.90;99.90;;;;;;12485437;28;20374;-41
2023/07/22 04:35:44;;;;;;;;;;;13.80;99.90;;;;;;12494845;28;19920;-41
2023/07/22 04:41:46;;;;;;;;;;;13.90;99.90;;;;;;12500103;28;19921;-41
2023/07/22 04:47:48;;;;;;;;;;;13.80;99.90;;;;;;12494456;28;19921;-39
2023/07/22 04:53:50;;;;;;;;;;;13.70;99.90;;;;;;12508200;28;19921;-41
2023/07/22 04:59:52;;;;;;;;;;;13.30;99.90;;;;;;12499416;28;19921;-42
2023/07/22 05:05:54;;;;;;;;;;;13.40;99.90;;;;;;12492010;28;19929;-42
2023/07/22 05:11:56;;;;;;;;;;;13.40;99.90;;;;;;12526769;28;19920;-42
2023/07/22 05:17:58;;;;;;;;;;;13.50;99.90;;;;;;12523056;28;20365;-42
2023/07/22 05:24:00;;;;;;;;;;;13.40;99.90;;;;;;12512171;28;19921;-42
2023/07/22 05:30:02;;;;;;;;;;;13.50;99.90;;;;;;12496520;28;19964;-42
2023/07/22 05:36:04;;;;;;;;;;;13.40;99.90;;;;;;12503091;28;20289;-42
2023/07/22 05:42:06;;;;;;;;;;;13.40;99.90;;;;;;12510218;28;19932;-41
2023/07/22 05:48:08;;;;;;;;;;;13.50;99.90;;;;;;12499616;28;20043;-42
2023/07/22 05:54:10;;;;;;;;;;;13.50;99.90;;;;;;12508124;28;19953;-42
2023/07/22 06:00:13;;;;;;;;;;;13.60;99.90;;;;;;12501755;28;19932;-42
2023/07/22 06:06:14;;;;;;;;;;;13.60;99.90;;;;;;12511657;28;20027;-41
2023/07/22 06:12:16;;;;;;;;;;;13.80;99.90;;;;;;12486457;28;20274;-42
2023/07/22 06:18:18;;;;;;;;;;;13.70;99.90;;;;;;12513465;28;19928;-42
2023/07/22 06:24:20;;;;;;;;;;;13.80;99.90;;;;;;12520293;28;19931;-42
2023/07/22 06:30:22;;;;;;;;;;;13.90;99.90;;;;;;12500226;28;19925;-42
2023/07/22 06:36:24;;;;;;;;;;;14.20;99.90;;;;;;12503571;28;20011;-42
2023/07/22 06:42:27;;;;;;;;;;;14.20;99.90;;;;;;12499948;28;20299;-42
2023/07/22 06:48:28;;;;;;;;;;;14.30;99.90;;;;;;12486475;28;20071;-41
2023/07/22 06:54:30;;;;;;;;;;;14.30;99.90;;;;;;12518564;28;20288;-42
2023/07/22 07:00:32;;;;;;;;;;;14.30;99.90;;;;;;12499617;28;20349;-42
2023/07/22 07:06:34;;;;;;;;;;;14.50;99.90;;;;;;12507049;28;19929;-42
2023/07/22 07:12:36;;;;;;;;;;;14.80;99.90;;;;;;12520153;28;19921;-42
2023/07/22 07:18:37;;;;;;;;;;;15.10;99.90;;;;;;12516997;28;20385;-42
2023/07/22 07:24:39;;;;;;;;;;;15.20;99.90;;;;;;12493423;28;20329;-42
2023/07/22 07:30:42;;;;;;;;;;;15.40;99.90;;;;;;12485196;28;19921;-42
2023/07/22 07:36:44;;;;;;;;;;;15.50;99.90;;;;;;12516819;28;19925;-42
2023/07/22 07:42:45;;;;;;;;;;;15.60;99.90;;;;;;12491471;28;20015;-42
2023/07/22 07:48:51;;;;;;;;;;;15.90;99.90;;;;;;12514860;28;20007;-42
2023/07/22 07:54:52;;;;;;;;;;;15.90;99.90;;;;;;12512505;28;19921;-42
2023/07/22 08:00:54;;;;;;;;;;;15.90;99.90;;;;;;12501953;28;19924;-41
2023/07/22 08:06:57;;;;;;;;;;;16.30;99.90;;;;;;12506067;28;19928;-42
2023/07/22 08:12:59;;;;;;;;;;;16.60;99.90;;;;;;12483014;28;19921;-42
2023/07/22 08:19:01;;;;;;;;;;;16.70;99.90;;;;;;12508623;28;20005;-42
2023/07/22 08:25:03;;;;;;;;;;;16.80;99.90;;;;;;12521390;28;20050;-42
2023/07/22 08:31:05;;;;;;;;;;;16.90;99.90;;;;;;12488092;28;20240;-42
2023/07/22 08:37:07;;;;;;;;;;;16.80;99.90;;;;;;12492013;28;20195;-42
2023/07/22 08:43:10;;;;;;;;;;;16.90;99.90;;;;;;12500060;28;19920;-42
2023/07/22 08:49:13;;;;;;;;;;;17.10;99.90;;;;;;12490706;28;19921;-42
2023/07/22 08:55:15;;;;;;;;;;;17.30;99.90;;;;;;12500144;28;20373;-42
2023/07/22 09:01:17;;;;;;;;;;;17.50;99.90;;;;;;12499531;28;20023;-43
2023/07/22 09:07:19;;;;;;;;;;;17.60;99.90;;;;;;12491370;28;19925;-42
2023/07/22 09:13:22;;;;;;;;;;;17.80;99.90;;;;;;12498502;28;19927;-42
2023/07/22 09:19:24;;;;;;;;;;;18.30;99.90;;;;;;12522283;28;19920;-42
2023/07/22 09:25:27;;;;;;;;;;;18.50;99.90;;;;;;12510101;28;19979;-42
2023/07/22 09:31:28;;;;;;;;;;;18.70;99.90;;;;;;12487197;28;19921;-41
2023/07/22 09:37:36;;;;;;;;;;;18.70;99.90;;;;;;12511123;28;19925;-42
2023/07/22 09:43:38;;;;;;;;;;;18.60;99.90;;;;;;12504086;28;19920;-42
2023/07/22 09:49:41;;;;;;;;;;;18.90;99.90;;;;;;12500132;28;20278;-42
2023/07/22 09:55:43;;;;;;;;;;;19.10;99.90;;;;;;12515930;28;20041;-42
2023/07/22 10:01:47;;;;;;;;;;;18.80;99.90;;;;;;12518439;28;19924;-43
2023/07/22 10:07:54;;;;;;;;;;;18.70;99.90;;;;;;12514987;28;19920;-42
2023/07/22 10:13:55;;;;;;;;;;;18.70;99.90;;;;;;12520550;28;20074;-42
2023/07/22 10:19:57;;;;;;;;;;;18.30;99.90;;;;;;12530448;28;20281;-42
2023/07/22 10:25:59;;;;;;;;;;;18.00;99.90;;;;;;12511405;28;20407;-42
2023/07/22 10:32:01;;;;;;;;;;;17.80;99.90;;;;;;12501321;28;19966;-42
2023/07/22 10:38:07;;;;;;;;;;;17.50;99.90;;;;;;12514205;28;20408;-42
2023/07/22 10:44:09;;;;;;;;;;;17.40;99.90;;;;;;12515390;28;19943;-41
2023/07/22 10:50:11;;;;;;;;;;;17.50;99.90;;;;;;12496262;28;19927;-42
2023/07/22 10:56:19;;;;;;;;;;;18.30;99.90;;;;;;12510184;28;20331;-42
2023/07/22 11:02:25;;;;;;;;;;;18.50;99.90;;;;;;12499230;28;19947;-42
2023/07/22 11:08:37;;;;;;;;;;;18.60;99.90;;;;;;12518097;28;19932;-42
2023/07/22 11:14:46;;;;;;;;;;;18.80;99.90;;;;;;12520031;28;19921;-42
2023/07/22 11:20:52;;;;;;;;;;;19.10;99.90;;;;;;12517651;28;19935;-42
2023/07/22 11:26:55;;;;;;;;;;;19.40;99.90;;;;;;12505065;28;19920;-42
2023/07/22 11:32:58;;;;;;;;;;;19.90;99.90;;;;;;12512734;28;19928;-42
2023/07/22 11:39:01;;;;;;;;;;;19.60;99.90;;;;;;12492485;28;19972;-42
2023/07/22 11:45:03;;;;;;;;;;;19.40;99.90;;;;;;12517005;28;19921;-42
2023/07/22 11:51:07;;;;;;;;;;;19.60;99.90;;;;;;12511974;28;20300;-42
2023/07/22 11:57:15;;;;;;;;;;;19.40;99.90;;;;;;12514907;28;20353;-42
2023/07/22 12:03:17;;;;;;;;;;;19.60;99.90;;;;;;12495384;28;19929;-42
2023/07/22 12:09:19;;;;;;;;;;;19.50;99.90;;;;;;12489566;28;19925;-42
2023/07/22 12:15:23;;;;;;;;;;;19.50;99.90;;;;;;12495061;28;19927;-42
2023/07/22 12:21:26;;;;;;;;;;;19.50;99.90;;;;;;12512836;28;20808;-40
2023/07/22 12:27:29;;;;;;;;;;;19.80;99.90;;;;;;12503808;28;19983;-42
2023/07/22 12:33:31;;;;;;;;;;;19.90;99.90;;;;;;12496897;28;21243;-41
2023/07/22 12:39:33;;;;;;;;;;;20.20;99.90;;;;;;12509444;28;20353;-42
2023/07/22 12:45:34;;;;;;;;;;;20.20;99.90;;;;;;12504015;28;19932;-41
2023/07/22 12:51:36;;;;;;;;;;;20.00;99.90;;;;;;12511338;28;19920;-42
2023/07/22 12:57:38;;;;;;;;;;;20.40;99.90;;;;;;12506667;28;19955;-42
2023/07/22 13:03:40;;;;;;;;;;;20.50;99.90;;;;;;12492732;28;20404;-42
2023/07/22 13:09:43;;;;;;;;;;;20.50;99.90;;;;;;12494056;28;19928;-42
2023/07/22 13:15:45;;;;;;;;;;;20.60;99.90;;;;;;12513014;28;19924;-42
2023/07/22 13:21:47;;;;;;;;;;;21.10;99.90;;;;;;12502795;28;19931;-42
2023/07/22 13:27:48;;;;;;;;;;;20.90;99.90;;;;;;12507406;28;19971;-42
2023/07/22 13:33:51;;;;;;;;;;;21.00;99.90;;;;;;12513575;28;19974;-43
2023/07/22 13:39:53;;;;;;;;;;;21.00;99.90;;;;;;12507584;28;19968;-43
2023/07/22 13:45:54;;;;;;;;;;;21.00;99.90;;;;;;12527358;28;19921;-43
2023/07/22 13:51:56;;;;;;;;;;;21.10;99.90;;;;;;12522887;28;19960;-43
2023/07/22 13:57:58;;;;;;;;;;;21.10;99.90;;;;;;12523240;28;19935;-42
2023/07/22 14:04:00;;;;;;;;;;;21.20;99.90;;;;;;12508578;28;19933;-42
2023/07/22 14:10:04;;;;;;;;;;;21.00;99.90;;;;;;12514463;28;19921;-42
2023/07/22 14:16:05;;;;;;;;;;;21.30;99.90;;;;;;12531535;28;19931;-42
2023/07/22 14:22:23;;;;;;;;;;;21.20;99.90;;;;;;12483097;28;20376;-42
2023/07/22 14:28:25;;;;;;;;;;;21.20;99.90;;;;;;12513850;28;20293;-42
2023/07/22 14:34:27;;;;;;;;;;;21.00;99.90;;;;;;12506589;28;19928;-42
2023/07/22 14:40:29;;;;;;;;;;;20.80;99.90;;;;;;12510000;28;19925;-42
2023/07/22 14:46:31;;;;;;;;;;;20.60;99.90;;;;;;12504897;28;20433;-42
2023/07/22 14:52:33;;;;;;;;;;;20.60;99.90;;;;;;12513602;28;19927;-42
2023/07/22 14:58:35;;;;;;;;;;;20.70;99.90;;;;;;12494456;28;20027;-43
2023/07/22 15:04:37;;;;;;;;;;;20.70;99.90;;;;;;12506164;28;20254;-43
2023/07/22 15:10:39;;;;;;;;;;;20.60;99.90;;;;;;12501658;28;19928;-41
2023/07/22 15:16:41;;;;;;;;;;;20.60;99.90;;;;;;12505188;28;19978;-43
2023/07/22 15:22:42;;;;;;;;;;;20.70;99.90;;;;;;12501224;28;20348;-43
2023/07/22 15:28:44;;;;;;;;;;;20.60;99.90;;;;;;12501638;28;20015;-41
2023/07/22 15:34:46;;;;;;;;;;;20.70;99.90;;;;;;12515426;28;19963;-43
2023/07/22 15:40:48;;;;;;;;;;;20.90;99.90;;;;;;12520484;28;20065;-44
2023/07/22 15:46:51;;;;;;;;;;;20.90;99.90;;;;;;12480292;28;20297;-44
2023/07/22 15:52:53;;;;;;;;;;;20.80;99.90;;;;;;12491618;28;20581;-44
2023/07/22 15:58:55;;;;;;;;;;;20.80;99.90;;;;;;12494954;28;19921;-42
2023/07/22 16:04:56;;;;;;;;;;;20.90;99.90;;;;;;12491053;28;19925;-42
2023/07/22 16:10:58;;;;;;;;;;;21.10;99.90;;;;;;12512369;28;19921;-42
2023/07/22 16:17:00;;;;;;;;;;;21.10;99.90;;;;;;12498150;28;20012;-42
2023/07/22 16:23:02;;;;;;;;;;;21.20;99.90;;;;;;12509024;28;20718;-42
2023/07/22 16:29:05;;;;;;;;;;;21.20;99.90;;;;;;12504591;28;19935;-42
2023/07/22 16:35:07;;;;;;;;;;;21.60;99.90;;;;;;12502040;28;19925;-42
2023/07/22 16:41:08;;;;;;;;;;;21.40;99.90;;;;;;12493506;28;19921;-42
2023/07/22 16:47:10;;;;;;;;;;;21.20;99.90;;;;;;12500257;28;20403;-42
2023/07/22 16:53:12;;;;;;;;;;;21.00;99.90;;;;;;12502205;28;19964;-42
2023/07/22 16:59:14;;;;;;;;;;;20.80;99.90;;;;;;12491824;28;19925;-43
2023/07/22 17:05:16;;;;;;;;;;;20.70;99.90;;;;;;12517529;28;19960;-41
2023/07/22 17:11:18;;;;;;;;;;;20.70;99.90;;;;;;12511635;28;20300;-42
2023/07/22 17:17:19;;;;;;;;;;;20.50;99.90;;;;;;12478199;28;20448;-42
2023/07/22 17:23:21;;;;;;;;;;;20.30;99.90;;;;;;12492479;28;19947;-42
2023/07/22 17:29:23;;;;;;;;;;;20.30;99.90;;;;;;12504561;28;20353;-42
2023/07/22 17:35:25;;;;;;;;;;;20.20;99.90;;;;;;12516191;28;19928;-42
2023/07/22 17:41:26;;;;;;;;;;;20.00;99.90;;;;;;12501900;28;19932;-42
2023/07/22 17:47:29;;;;;;;;;;;20.00;99.90;;;;;;12503746;28;19929;-42
2023/07/22 17:53:30;;;;;;;;;;;20.00;99.90;;;;;;12528191;28;19974;-42
2023/07/22 17:59:32;;;;;;;;;;;19.90;99.90;;;;;;12507838;28;19928;-42
2023/07/22 18:05:34;;;;;;;;;;;19.50;99.90;;;;;;12503107;28;19921;-42
2023/07/22 18:11:36;;;;;;;;;;;19.00;99.90;;;;;;12491808;28;19921;-42
2023/07/22 18:17:37;;;;;;;;;;;19.00;99.90;;;;;;12507413;28;19929;-42
2023/07/22 18:23:39;;;;;;;;;;;18.60;99.90;;;;;;12505128;28;19982;-42
2023/07/22 18:29:41;;;;;;;;;;;18.50;99.90;;;;;;12510942;28;20038;-43
2023/07/22 18:35:50;;;;;;;;;;;18.30;99.90;;;;;;12524356;28;19962;-42
2023/07/22 18:41:52;;;;;;;;;;;18.10;99.90;;;;;;12492022;28;19925;-42
2023/07/22 18:47:53;;;;;;;;;;;18.00;99.90;;;;;;12481137;28;19921;-42
2023/07/22 18:53:56;;;;;;;;;;;18.00;99.90;;;;;;12502074;28;19928;-42
2023/07/22 18:59:57;;;;;;;;;;;17.90;99.90;;;;;;12489264;28;19920;-42
2023/07/22 19:05:59;;;;;;;;;;;17.80;99.90;;;;;;12486345;28;20028;-42
2023/07/22 19:12:01;;;;;;;;;;;17.60;99.90;;;;;;12522614;28;20643;-43
2023/07/22 19:18:03;;;;;;;;;;;17.70;99.90;;;;;;12513600;28;19975;-43
2023/07/22 19:24:05;;;;;;;;;;;17.70;99.90;;;;;;12498303;28;20345;-42
2023/07/22 19:30:08;;;;;;;;;;;17.80;99.90;;;;;;12515611;28;19960;-42
2023/07/22 19:36:10;;;;;;;;;;;17.20;99.90;;;;;;12486024;28;20023;-42
2023/07/22 19:42:12;;;;;;;;;;;17.10;99.90;;;;;;12483083;28;19967;-42
2023/07/22 19:48:14;;;;;;;;;;;17.00;99.90;;;;;;12515681;28;19966;-42
2023/07/22 19:54:16;;;;;;;;;;;16.90;99.90;;;;;;12520788;28;19943;-42
2023/07/22 20:00:18;;;;;;;;;;;16.80;99.90;;;;;;12491849;28;19921;-42
2023/07/22 20:06:20;;;;;;;;;;;16.90;99.90;;;;;;12513758;28;20023;-42
2023/07/22 20:12:22;;;;;;;;;;;17.00;99.90;;;;;;12510736;28;19920;-41
2023/07/22 20:18:24;;;;;;;;;;;16.80;99.90;;;;;;12504099;28;19931;-42
2023/07/22 20:24:26;;;;;;;;;;;16.90;99.90;;;;;;12515564;28;19920;-42
2023/07/22 20:30:28;;;;;;;;;;;17.00;99.90;;;;;;12499032;28;20075;-42
2023/07/22 20:36:30;;;;;;;;;;;16.80;99.90;;;;;;12502240;28;20027;-42
2023/07/22 20:42:32;;;;;;;;;;;16.90;99.90;;;;;;12508457;28;19960;-42
2023/07/22 20:48:34;;;;;;;;;;;17.00;99.90;;;;;;12505335;28;19921;-42
2023/07/22 20:54:36;;;;;;;;;;;17.00;99.90;;;;;;12534618;28;19925;-43
2023/07/22 21:00:41;;;;;;;;;;;17.00;99.90;;;;;;12517663;28;19974;-42
2023/07/22 21:06:42;;;;;;;;;;;16.40;99.90;;;;;;12510573;28;19921;-43
2023/07/22 21:12:46;;;;;;;;;;;16.50;99.90;;;;;;12496685;28;20495;-42
2023/07/22 21:18:47;;;;;;;;;;;16.40;99.90;;;;;;12499941;28;19935;-42
2023/07/22 21:24:49;;;;;;;;;;;16.30;99.90;;;;;;12525669;28;19925;-43
2023/07/22 21:30:52;;;;;;;;;;;16.30;99.90;;;;;;12520310;28;19920;-43
2023/07/22 21:36:53;;;;;;;;;;;16.40;99.90;;;;;;12502215;28;19921;-43
2023/07/22 21:42:55;;;;;;;;;;;16.40;99.90;;;;;;12499712;28;19921;-43
2023/07/22 21:48:57;;;;;;;;;;;16.30;99.90;;;;;;12496757;28;19976;-42
2023/07/22 21:54:59;;;;;;;;;;;16.20;99.90;;;;;;12515312;28;19967;-42
2023/07/22 22:01:00;;;;;;;;;;;16.00;99.90;;;;;;12496655;28;19921;-42
2023/07/22 22:07:02;;;;;;;;;;;16.00;99.90;;;;;;12512074;28;19963;-42
2023/07/22 22:13:04;;;;;;;;;;;16.00;99.90;;;;;;12496928;28;19944;-43
2023/07/22 22:19:05;;;;;;;;;;;16.00;99.90;;;;;;12497282;28;19921;-43
2023/07/22 22:25:07;;;;;;;;;;;16.10;99.90;;;;;;12506293;28;20016;-42
2023/07/22 22:31:09;;;;;;;;;;;15.90;99.90;;;;;;12512765;28;20549;-43
2023/07/22 22:37:11;;;;;;;;;;;15.90;99.90;;;;;;12502254;28;19928;-42
2023/07/22 22:43:13;;;;;;;;;;;15.90;99.90;;;;;;12500370;28;19959;-43
2023/07/22 22:49:15;;;;;;;;;;;15.90;99.90;;;;;;12508614;28;19967;-43
2023/07/22 22:55:17;;;;;;;;;;;15.70;99.90;;;;;;12520260;28;19984;-43
2023/07/22 23:01:18;;;;;;;;;;;15.70;99.90;;;;;;12524085;28;19928;-43
2023/07/22 23:07:20;;;;;;;;;;;15.60;99.90;;;;;;12483164;28;19925;-42
2023/07/22 23:13:22;;;;;;;;;;;15.50;99.90;;;;;;12502810;28;19968;-43
2023/07/22 23:19:24;;;;;;;;;;;15.40;99.90;;;;;;12509948;28;19947;-43
2023/07/22 23:25:25;;;;;;;;;;;15.30;99.90;;;;;;12517958;28;20019;-42
2023/07/22 23:31:27;;;;;;;;;;;15.30;99.90;;;;;;12478156;28;19933;-43
2023/07/22 23:37:30;;;;;;;;;;;15.20;99.90;;;;;;12498508;28;19925;-43
2023/07/22 23:43:31;;;;;;;;;;;15.20;99.90;;;;;;12477490;28;19921;-42
2023/07/22 23:49:33;;;;;;;;;;;15.20;99.90;;;;;;12483089;28;20004;-43
2023/07/22 23:55:35;;;;;;;;;;;15.20;99.90;;;;;;12516808;28;20011;-43
